Date,TemperatureHighF,TemperatureAvgF,TemperatureLowF,DewpointHighF,DewpointAvgF,DewpointLowF,HumidityHigh,HumidityAvg,HumidityLow,PressureMaxIn,PressureMinIn,WindSpeedMaxMPH,WindSpeedAvgMPH,GustSpeedMaxMPH,PrecipitationSumIn
2013-2-21,0.0,0.0,0.0,0.0,0.0,0.0,0,0,100,29.47,29.23,4,1,4,0.46
2013-2-22,50.7,49.8,49.5,46.5,45.9,45.6,88,86,84,29.35,29.32,6,2,6,0.00
2013-2-23,39.2,38.5,37.8,36.0,35.6,35.1,90,89,88,29.20,29.17,3,2,3,0.17
2013-2-24,71.8,46.1,30.7,38.7,29.9,3.4,96,60,7,29.32,29.17,6,2,6,0.00
2013-2-25,67.1,49.2,37.8,46.4,30.7,22.7,91,50,32,29.26,28.94,8,2,115,0.00
2013-2-26,49.8,45.7,39.7,46.8,40.8,32.8,96,84,58,29.00,28.76,10,4,13,0.50
2013-2-27,61.3,44.4,39.2,39.2,32.9,28.1,86,65,39,29.14,29.00,11,4,11,0.08
2013-2-28,41.2,37.7,35.2,27.4,24.6,21.9,70,59,52,29.29,29.12,7,2,7,0.00
2013-3-1,44.1,37.2,32.9,32.0,28.9,26.6,93,72,53,29.29,29.17,8,2,13,0.00
2013-3-2,39.2,34.8,31.3,32.1,27.6,22.8,97,75,59,29.32,29.17,6,2,6,0.00
2013-3-3,48.4,33.7,23.9,23.4,19.5,15.1,77,58,33,29.35,29.29,12,2,12,0.00
2013-3-4,59.7,45.6,24.6,32.4,25.7,18.1,80,49,28,29.41,29.17,6,2,8,0.00
2013-3-5,57.2,48.4,34.0,55.5,41.4,21.2,98,78,48,29.20,28.88,12,2,12,0.91
2013-3-6,49.5,36.5,32.2,30.1,23.3,18.4,70,58,46,29.47,29.17,13,4,13,0.00
2013-3-7,57.0,41.7,30.6,33.6,27.9,24.0,83,60,40,29.59,29.47,8,3,8,0.00
2013-3-8,68.2,42.2,24.8,33.6,19.5,-12.4,95,56,4,29.59,29.47,9,2,10,0.00
2013-3-9,70.5,51.6,34.5,39.3,31.3,26.6,77,48,29,29.53,29.32,8,1,8,0.00
2013-3-10,75.4,63.3,51.1,42.9,35.2,30.0,46,36,24,29.41,29.14,12,4,12,0.00
2013-3-11,64.2,53.2,39.2,54.9,46.8,31.6,98,80,46,29.17,28.97,10,3,12,1.25
2013-3-12,65.7,49.4,36.9,36.1,31.5,27.3,76,53,31,29.38,29.14,14,3,14,2.16
2013-3-13,56.3,41.6,26.8,31.7,24.1,14.9,91,53,29,29.59,29.32,12,3,12,0.00
2013-3-14,63.7,40.1,22.6,35.7,18.7,-10.3,89,52,5,29.65,29.47,6,2,7,0.00
2013-3-15,78.1,51.8,28.8,46.7,37.4,27.0,98,64,31,29.47,29.14,12,3,12,0.04
2013-3-16,83.7,64.0,50.0,50.3,45.0,41.0,73,53,30,29.17,29.06,12,3,14,0.00
2013-3-17,76.8,61.8,49.3,54.3,47.4,39.9,86,62,39,29.20,29.09,15,3,15,0.00
2013-3-18,62.2,58.6,50.7,60.7,55.4,47.9,98,89,74,29.14,28.97,8,2,11,0.62
2013-3-19,68.5,50.8,34.0,47.7,26.5,-11.9,98,51,4,29.38,29.12,11,3,11,0.00
2013-3-20,64.6,46.7,33.6,28.6,15.3,-12.4,63,37,4,29.41,29.17,10,3,10,0.00
2013-3-21,54.3,36.1,22.6,23.0,8.9,-11.1,65,39,7,29.29,29.14,12,2,12,0.00
2013-3-22,50.5,41.1,30.9,35.1,22.3,15.1,80,48,37,29.29,29.17,5,1,6,0.00
2013-3-23,62.6,46.4,40.5,48.6,42.1,35.0,98,86,57,29.20,28.97,6,2,9,0.46
2013-3-24,61.0,53.7,39.2,56.3,47.9,24.0,98,82,53,29.00,28.64,15,3,20,4.06
2013-3-25,41.7,36.1,33.1,28.2,23.6,20.4,82,61,51,29.35,28.94,10,3,13,0.00
2013-3-26,43.5,35.1,28.2,28.5,25.3,21.4,88,68,50,29.56,29.29,6,2,10,0.00
2013-3-27,61.7,40.7,23.9,32.7,26.4,21.8,96,62,27,29.59,29.47,13,2,13,0.00
2013-3-28,68.4,45.1,25.2,36.3,28.5,22.1,90,58,24,29.59,29.47,14,2,14,0.00
2013-3-29,59.2,46.0,33.8,40.8,33.5,29.4,88,64,39,29.59,29.41,6,2,6,0.00
2013-3-30,75.0,55.1,39.2,55.0,46.2,37.3,98,76,37,29.44,29.20,6,2,6,4.52
2013-3-31,65.7,57.8,54.0,61.0,56.2,53.4,98,95,71,29.20,29.06,6,2,8,0.25
2013-4-1,75.6,54.8,37.6,54.5,42.4,35.2,98,68,34,29.32,29.12,10,2,10,4.77
2013-4-2,65.1,48.7,35.6,37.2,26.4,18.8,72,43,26,29.50,29.32,13,3,13,0.00
2013-4-3,61.0,51.2,37.0,28.3,22.8,9.2,53,34,14,29.47,29.35,10,3,10,0.00
2013-4-4,50.5,45.1,43.3,44.7,41.9,27.1,97,89,42,29.41,29.17,5,1,5,5.89
2013-4-5,76.1,55.1,43.3,48.1,40.4,33.6,97,65,23,29.35,29.20,9,2,11,5.93
2013-4-6,80.6,58.2,35.6,47.6,38.6,33.8,95,55,22,29.41,29.29,10,2,10,0.00
2013-4-7,80.2,62.1,47.7,48.5,43.9,36.9,79,54,31,29.38,29.23,11,2,11,0.00
2013-4-8,82.6,64.9,49.1,58.6,51.6,45.9,94,65,39,29.35,29.23,13,3,13,0.00
2013-4-9,88.5,69.7,51.8,59.8,54.9,49.8,95,63,35,29.44,29.26,12,3,12,5.93
2013-4-10,91.4,73.0,54.5,60.7,56.0,51.6,94,59,34,29.35,29.12,10,2,10,0.00
2013-4-11,81.1,68.5,60.6,65.8,59.3,54.5,98,74,47,29.14,28.79,10,2,13,1.45
2013-4-12,75.2,59.8,45.1,62.3,42.8,35.1,96,58,31,29.20,28.88,8,2,9,0.13
2013-4-13,85.3,63.5,39.2,48.1,33.1,-14.9,97,47,2,29.32,29.17,8,2,10,0.00
2013-4-14,70.0,55.6,44.2,54.1,46.7,37.7,89,74,38,29.29,29.12,13,1,13,0.04
2013-4-15,87.6,68.4,56.7,59.5,56.4,53.4,93,70,36,29.35,29.12,6,2,7,0.00
2013-4-16,85.1,70.7,59.2,67.3,62.5,56.2,92,76,51,29.47,29.32,5,1,6,0.00
2013-4-17,92.5,70.5,61.5,69.5,63.5,57.3,98,82,41,29.47,29.26,8,2,8,0.91
2013-4-18,86.7,72.8,59.4,67.1,58.9,53.4,98,66,38,29.32,29.00,14,3,14,0.00
2013-4-19,73.4,56.0,37.0,65.9,47.3,33.1,96,74,46,29.38,28.91,13,3,13,9.79
2013-4-20,73.9,52.4,31.3,42.2,33.2,26.6,98,56,21,29.50,29.35,10,2,10,0.00
2013-4-21,77.7,56.9,37.9,43.1,36.6,31.4,83,51,22,29.59,29.47,7,2,8,0.00
2013-4-22,82.2,61.6,41.7,48.4,42.9,38.6,92,56,24,29.56,29.35,8,2,8,0.00
2013-4-23,83.1,65.0,47.8,52.0,45.2,37.5,87,53,32,29.44,29.26,7,2,8,0.00
2013-4-24,68.7,58.5,46.4,64.3,52.3,38.6,96,80,67,29.50,29.23,8,2,13,10.00
2013-4-25,78.8,55.9,41.2,45.2,34.2,-19.1,78,52,2,29.59,29.47,6,3,8,0.00
2013-4-26,83.1,58.1,37.0,51.2,40.1,33.0,96,59,20,29.62,29.47,7,2,8,0.66
2013-4-27,65.3,55.6,51.8,60.6,54.4,50.8,98,96,80,29.59,29.29,4,2,6,0.95
2013-4-28,63.0,59.2,56.5,62.1,58.5,55.9,98,97,94,29.32,29.17,4,1,6,2.12
2013-4-29,81.5,63.9,53.4,63.7,56.9,51.4,98,81,41,29.29,29.17,6,2,6,13.77
2013-4-30,89.2,68.7,48.6,62.8,55.2,48.0,98,68,32,29.32,29.17,8,2,8,0.00
2013-5-1,82.6,69.1,59.2,62.6,58.6,53.7,92,71,44,29.44,29.29,6,2,6,0.00
2013-5-2,84.4,67.4,53.4,62.7,55.6,50.9,94,68,40,29.44,29.35,8,2,8,0.00
2013-5-3,74.5,64.9,58.6,59.3,55.0,51.7,89,71,48,29.35,29.14,8,3,13,0.04
2013-5-4,59.0,53.3,47.1,56.1,52.4,45.8,98,97,91,29.20,29.12,6,2,7,2.82
2013-5-5,75.4,55.2,46.6,55.0,48.9,45.3,98,83,42,29.15,29.00,6,2,8,17.63
2013-5-6,65.7,53.5,46.8,54.9,49.2,42.7,98,87,53,29.17,29.00,6,1,6,0.33
2013-5-7,77.5,59.7,46.4,57.7,51.3,45.9,98,78,43,29.29,29.12,6,2,6,17.96
2013-5-8,82.4,62.8,48.4,62.8,55.2,47.8,98,80,43,29.32,29.20,6,1,6,0.00
2013-5-9,88.5,67.7,52.5,64.4,57.8,52.0,98,75,41,29.38,29.23,8,1,9,0.00
2013-5-10,73.2,64.4,55.9,63.7,59.2,55.3,98,84,61,29.35,29.17,6,1,6,0.00
2013-5-11,83.3,67.2,52.7,68.2,58.0,50.5,97,75,45,29.26,29.11,8,2,8,0.04
2013-5-12,75.6,60.1,41.0,52.2,37.3,30.2,95,47,21,29.38,29.23,12,3,13,0.00
2013-5-13,79.5,58.0,35.2,45.7,37.6,27.9,92,53,18,29.53,29.35,9,2,9,18.00
2013-5-14,85.8,71.1,43.0,58.0,52.7,36.6,88,55,37,29.47,29.29,13,3,13,0.00
2013-5-15,95.9,73.5,54.3,64.2,56.0,49.9,95,60,28,29.41,29.23,9,2,9,0.00
2013-5-16,91.8,70.7,54.5,64.9,58.5,52.5,96,70,34,29.35,29.23,9,2,9,0.00
2013-5-17,82.9,67.3,0.0,72.6,63.4,0.0,98,87,60,29.35,29.23,6,0,6,0.50
2013-5-18,86.2,71.9,64.4,77.3,68.9,63.8,98,91,66,29.32,29.23,4,1,6,0.12
2013-5-19,73.4,67.3,58.3,71.9,66.4,57.7,98,97,94,29.35,29.20,5,1,6,1.58
2013-5-20,90.1,71.9,58.1,75.8,66.1,57.5,98,84,48,29.35,29.23,8,1,8,0.04
2013-5-21,95.7,74.5,61.2,78.2,65.8,58.9,98,78,38,29.29,29.12,9,2,9,0.00
2013-5-22,89.8,75.1,63.3,74.8,66.2,62.2,98,77,46,29.23,29.09,8,1,8,0.04
2013-5-23,88.9,71.1,59.2,75.3,61.4,53.9,98,75,38,29.32,29.14,10,2,10,0.00
2013-5-24,83.3,67.1,50.4,58.7,49.2,39.9,85,56,31,29.50,29.29,9,3,12,0.00
2013-5-25,87.6,69.0,46.0,53.8,47.9,41.8,88,51,29,29.56,29.41,6,1,6,0.00
2013-5-26,113.0,80.8,48.9,67.2,52.7,33.6,85,45,11,29.50,29.41,6,1,6,0.00
2013-5-27,92.8,71.5,52.9,63.0,56.1,50.3,92,64,30,29.44,29.35,6,2,6,0.38
2013-5-28,94.3,79.7,63.1,70.5,60.0,54.8,91,55,30,29.44,29.32,8,2,8,0.00
2013-5-29,93.0,72.0,60.4,69.8,60.9,56.8,93,72,37,29.47,29.35,5,1,6,0.00
2013-5-30,87.1,75.2,68.4,70.3,65.0,62.3,83,72,49,29.47,29.35,8,2,8,0.00
2013-5-31,89.1,75.8,68.4,74.3,66.8,63.7,92,75,49,29.41,29.29,6,2,7,0.00
2013-6-1,90.1,73.1,65.8,77.4,67.5,64.4,96,83,54,29.35,29.20,6,1,8,0.00
2013-6-2,90.0,71.8,63.3,77.5,67.4,62.0,97,88,45,29.26,29.12,5,1,5,0.00
2013-6-3,91.8,73.5,62.8,72.7,63.4,59.5,98,74,40,29.26,29.14,6,1,8,0.00
2013-6-4,95.7,78.8,56.7,68.8,62.7,56.1,98,62,35,29.32,29.23,6,2,6,0.00
2013-6-5,84.6,69.8,60.6,78.0,67.6,59.0,98,93,74,29.29,29.14,8,1,8,0.00
2013-6-6,92.3,75.1,66.2,75.3,69.6,65.6,98,85,50,29.17,29.00,7,1,7,0.00
2013-6-7,87.6,71.6,65.8,74.4,68.2,64.7,97,90,57,29.15,29.00,4,0,4,0.00
2013-6-8,89.4,73.6,65.1,75.9,66.6,62.7,98,81,45,29.32,29.11,6,1,6,0.00
2013-6-9,85.3,74.3,63.9,77.6,70.3,63.2,98,88,70,29.35,29.20,5,1,5,0.00
2013-6-10,90.3,78.8,67.8,74.1,69.3,66.0,98,75,48,29.26,29.12,9,2,9,0.00
2013-6-11,99.7,83.0,68.9,80.3,72.9,68.3,98,75,41,29.32,29.20,7,1,7,0.00
2013-6-12,101.5,85.0,70.9,84.0,75.7,69.4,98,77,42,29.32,29.17,5,1,8,0.00
2013-6-13,94.6,77.2,66.9,80.8,71.8,66.0,97,85,58,29.17,29.03,12,2,12,0.00
2013-6-14,93.6,75.9,59.0,67.9,62.1,57.8,98,67,35,29.29,29.12,6,1,8,0.00
2013-6-15,97.0,77.6,60.6,71.2,64.1,58.3,94,68,37,29.38,29.26,6,1,7,0.00
2013-6-16,96.1,77.4,65.1,76.8,69.4,64.2,97,80,42,29.38,29.23,6,1,7,0.00
2013-6-17,91.4,70.4,66.9,79.4,67.9,65.2,97,93,59,29.32,29.12,4,0,5,0.00
2013-6-18,91.0,71.7,64.0,80.2,68.5,63.5,98,91,61,29.20,29.12,6,1,7,0.00
2013-6-19,98.1,78.9,65.5,74.3,67.5,64.0,97,73,37,29.35,29.23,6,1,6,0.00
2013-6-20,96.4,81.5,66.0,76.6,69.6,64.8,96,70,41,29.47,29.35,11,2,11,0.00
2013-6-21,95.0,79.5,66.2,76.6,69.9,65.0,97,75,45,29.50,29.38,4,1,6,0.00
2013-6-22,97.2,73.4,64.9,75.9,66.4,63.5,98,83,40,29.47,29.35,5,1,6,0.00
2013-6-23,95.4,72.7,64.8,75.7,66.9,63.2,97,84,45,29.44,29.32,5,1,5,0.00
2013-6-24,95.9,81.6,64.8,77.9,70.9,63.9,98,73,45,29.44,29.32,5,1,5,0.00
2013-6-25,96.3,78.2,67.6,78.5,71.2,66.9,98,82,45,29.47,29.26,6,1,6,0.00
2013-6-26,95.9,78.8,68.5,77.7,72.3,67.7,97,82,52,29.41,29.12,7,1,7,0.00
2013-6-27,95.9,76.6,68.5,79.6,71.4,67.7,97,86,50,29.32,29.06,7,1,7,0.00
2013-6-28,91.8,75.4,68.4,80.6,72.1,66.8,97,90,57,29.17,28.94,8,2,8,0.00
2013-6-29,91.8,72.2,67.8,80.6,68.7,63.0,97,90,40,29.09,28.91,4,1,4,0.00
2013-6-30,91.4,74.1,67.8,76.2,66.5,63.0,92,80,40,29.00,28.91,3,1,4,0.00
2013-7-1,89.8,80.7,61.0,73.0,68.7,60.1,97,70,52,29.12,29.03,1,1,3,0.00
2013-7-2,91.2,76.4,61.0,74.7,67.7,60.1,97,77,46,29.23,29.03,6,1,6,0.00
2013-7-3,91.2,71.4,0.0,74.7,66.4,0.0,98,85,46,29.35,29.15,3,2,3,0.00
2013-7-4,76.5,49.5,0.0,75.9,49.1,0.0,98,67,97,29.38,29.29,3,0,3,0.00
2013-7-5,76.5,63.0,0.0,68.1,62.4,0.0,98,90,98,29.38,29.29,0,0,0,0.00
2013-7-6,68.9,19.9,0.0,68.3,19.7,0.0,98,28,98,29.41,29.35,0,0,0,0.00
2013-7-7,69.1,58.9,0.0,68.3,58.4,0.0,98,84,98,29.38,29.32,0,0,0,0.00
2013-7-8,76.1,67.9,0.0,73.9,67.2,0.0,98,96,93,29.41,29.32,0,0,0,0.00
2013-7-9,76.1,51.3,0.0,73.9,50.8,0.0,98,70,93,29.41,29.38,0,0,0,0.00
2013-7-10,93.7,93.7,93.7,79.2,79.2,79.2,63,63,63,29.17,29.17,3,3,3,0.00
2013-7-11,93.7,74.2,72.0,79.2,68.7,67.8,91,83,63,29.23,29.17,6,2,6,0.00
2013-7-17,86.4,75.8,72.5,70.1,68.2,64.3,89,78,56,29.47,29.41,10,1,10,0.00
2013-7-18,96.4,75.6,70.9,77.3,70.2,68.8,94,85,44,29.44,29.29,6,0,6,0.00
2013-7-19,72.3,71.5,70.7,69.6,69.0,68.6,93,92,90,29.35,29.32,0,0,0,0.00
2013-7-20,98.2,92.6,83.1,75.4,72.8,69.9,69,53,42,29.26,29.17,6,2,6,0.00
2013-7-21,96.4,79.9,71.1,79.4,73.1,68.1,94,81,48,29.29,29.17,6,2,8,0.00
2013-7-22,88.0,77.4,70.2,76.8,71.1,67.9,96,82,59,29.23,29.12,7,2,7,0.00
2013-7-23,70.9,70.5,70.3,69.1,68.6,68.2,94,94,93,29.20,29.20,2,0,2,0.00